createdAt,value
2023-01-23T00:05:49.736Z,2.5
2023-01-23T00:11:49.721Z,2.5
2023-01-23T00:14:49.723Z,2.4
2023-01-23T00:20:49.717Z,2.4
2023-01-23T00:23:49.721Z,2.4
2023-01-23T00:26:49.743Z,2.4
2023-01-23T00:29:49.736Z,2.4
2023-01-23T00:32:49.719Z,2.4
2023-01-23T00:35:49.748Z,2.4
2023-01-23T00:38:49.730Z,2.4
2023-01-23T00:41:49.730Z,2.4
2023-01-23T00:44:49.726Z,2.4
2023-01-23T00:47:49.722Z,2.4
2023-01-23T00:50:49.835Z,2.4
2023-01-23T00:53:49.751Z,2.4
2023-01-23T00:56:49.737Z,2.4
2023-01-23T00:59:49.738Z,2.4
2023-01-23T01:02:49.776Z,2.4
2023-01-23T01:05:49.725Z,2.4
2023-01-23T01:08:49.737Z,2.4
2023-01-23T01:11:49.723Z,2.4
2023-01-23T01:14:49.740Z,2.4
2023-01-23T01:17:49.741Z,2.4
2023-01-23T01:20:49.791Z,2.3
2023-01-23T01:23:49.733Z,2.3
2023-01-23T01:26:49.753Z,2.3
2023-01-23T01:29:49.730Z,2.3
2023-01-23T01:32:49.737Z,2.3
2023-01-23T01:35:49.742Z,2.2
2023-01-23T01:38:49.735Z,2.2
2023-01-23T01:41:49.739Z,2.2
2023-01-23T01:44:49.736Z,2.1
2023-01-23T01:47:49.733Z,2.1
2023-01-23T01:50:49.781Z,2.1
2023-01-23T01:53:49.734Z,2.1
2023-01-23T01:56:49.747Z,2.1
2023-01-23T01:59:49.748Z,2.1
2023-01-23T02:02:49.753Z,2.1
2023-01-23T02:05:49.740Z,2.1
2023-01-23T02:08:49.733Z,2.1
2023-01-23T02:11:49.743Z,2.1
2023-01-23T02:14:49.744Z,2.1
2023-01-23T02:17:49.737Z,2
2023-01-23T02:20:49.737Z,2
2023-01-23T02:23:49.743Z,2
2023-01-23T02:26:49.737Z,2
2023-01-23T02:29:49.737Z,2
2023-01-23T02:32:49.739Z,2
2023-01-23T02:35:49.752Z,2
2023-01-23T02:38:49.740Z,2
2023-01-23T02:41:49.759Z,2
2023-01-23T02:44:49.739Z,2
2023-01-23T02:47:49.746Z,2
2023-01-23T02:50:49.740Z,2
2023-01-23T02:53:49.740Z,1.9
2023-01-23T02:56:49.753Z,1.9
2023-01-23T02:59:49.743Z,1.9
2023-01-23T03:02:49.748Z,1.9
2023-01-23T03:05:49.743Z,2
2023-01-23T03:08:49.736Z,2
2023-01-23T03:11:49.748Z,2
2023-01-23T03:14:49.744Z,2
2023-01-23T03:17:49.748Z,2
2023-01-23T03:20:49.747Z,2.1
2023-01-23T03:23:49.747Z,2.1
2023-01-23T03:26:49.771Z,2.1
2023-01-23T03:29:49.769Z,2.1
2023-01-23T03:32:49.754Z,2.1
2023-01-23T03:35:49.759Z,2.1
2023-01-23T03:38:49.745Z,2.1
2023-01-23T03:41:49.745Z,2.1
2023-01-23T03:44:49.748Z,2.1
2023-01-23T03:47:49.775Z,2.1
2023-01-23T03:50:49.817Z,2.1
2023-01-23T03:53:49.756Z,2.2
2023-01-23T03:56:49.769Z,2.2
2023-01-23T03:59:49.772Z,2.2
2023-01-23T04:02:49.818Z,2.2
2023-01-23T04:05:49.766Z,2.2
2023-01-23T04:08:49.760Z,2.2
2023-01-23T04:11:49.762Z,2.2
2023-01-23T04:14:49.762Z,2.2
2023-01-23T04:17:49.766Z,2.2
2023-01-23T04:20:49.757Z,2.2
2023-01-23T04:23:49.764Z,2.2
2023-01-23T04:26:49.772Z,2.2
2023-01-23T04:29:49.785Z,2.2
2023-01-23T04:32:49.764Z,2.2
2023-01-23T04:35:49.769Z,2.2
2023-01-23T04:38:49.774Z,2.2
2023-01-23T04:41:49.764Z,2.2
2023-01-23T04:44:49.773Z,2.2
2023-01-23T04:47:49.765Z,2.2
2023-01-23T04:50:49.802Z,2.2
2023-01-23T04:53:49.767Z,2.2
2023-01-23T04:56:49.778Z,2.2
2023-01-23T04:59:49.766Z,2.3
2023-01-23T05:02:49.842Z,2.3
2023-01-23T05:05:49.789Z,2.3
2023-01-23T05:08:52.260Z,2.3
2023-01-23T05:11:49.772Z,2.3
2023-01-23T05:14:49.760Z,2.3
2023-01-23T05:20:49.775Z,2.3
2023-01-23T05:23:49.766Z,2.3
2023-01-23T05:26:49.775Z,2.3
2023-01-23T05:29:49.781Z,2.3
2023-01-23T05:32:49.774Z,2.3
2023-01-23T05:35:49.767Z,2.3
2023-01-23T05:38:49.772Z,2.3
2023-01-23T05:41:49.769Z,2.3
2023-01-23T05:44:49.805Z,2.3
2023-01-23T05:47:49.812Z,2.3
2023-01-23T05:50:49.837Z,2.3
2023-01-23T05:53:49.806Z,2.3
2023-01-23T05:56:49.786Z,2.3
2023-01-23T05:59:49.785Z,2.3
2023-01-23T06:02:49.834Z,2.3
2023-01-23T06:05:49.805Z,2.3
2023-01-23T06:08:49.785Z,2.3
2023-01-23T06:11:49.822Z,2.3
2023-01-23T06:14:49.789Z,2.3
2023-01-23T06:17:49.827Z,2.3
2023-01-23T06:20:49.800Z,2.3
2023-01-23T06:23:49.796Z,2.3
2023-01-23T06:26:49.786Z,2.3
2023-01-23T06:29:49.786Z,2.3
2023-01-23T06:32:49.801Z,2.3
2023-01-23T06:35:49.787Z,2.3
2023-01-23T06:38:49.800Z,2.3
2023-01-23T06:41:49.795Z,2.3
2023-01-23T06:44:49.793Z,2.3
2023-01-23T06:47:49.789Z,2.3
2023-01-23T06:50:49.845Z,2.3
2023-01-23T06:53:49.824Z,2.3
2023-01-23T06:56:49.778Z,2.3
2023-01-23T06:59:49.809Z,2.3
2023-01-23T07:02:49.852Z,2.3
2023-01-23T07:05:49.786Z,2.3
2023-01-23T07:08:49.775Z,2.3
2023-01-23T07:11:49.788Z,2.3
2023-01-23T07:14:49.804Z,2.3
2023-01-23T07:17:49.792Z,2.3
2023-01-23T07:20:49.784Z,2.3
2023-01-23T07:23:49.777Z,2.3
2023-01-23T07:26:49.791Z,2.2
2023-01-23T07:29:49.781Z,2.2
2023-01-23T07:32:49.800Z,2.2
2023-01-23T07:35:49.792Z,2.2
2023-01-23T07:38:49.783Z,2.2
2023-01-23T07:41:49.790Z,2.1
2023-01-23T07:44:49.807Z,2.1
2023-01-23T07:47:49.812Z,2.1
2023-01-23T07:50:49.856Z,2.1
2023-01-23T07:53:49.802Z,2.1
2023-01-23T07:56:49.790Z,2.1
2023-01-23T08:02:49.807Z,2.1
2023-01-23T08:05:49.805Z,2.1
2023-01-23T08:08:49.820Z,2.1
2023-01-23T08:11:49.815Z,2.2
2023-01-23T08:17:49.799Z,2.2
2023-01-23T08:20:49.799Z,2.2
2023-01-23T08:23:49.807Z,2.2
2023-01-23T08:26:49.810Z,2.2
2023-01-23T08:29:49.824Z,2.3
2023-01-23T08:32:49.812Z,2.3
2023-01-23T08:35:49.812Z,2.3
2023-01-23T08:38:49.809Z,2.3
2023-01-23T08:41:49.794Z,2.3
2023-01-23T08:44:49.802Z,2.3
2023-01-23T08:47:49.809Z,2.4
2023-01-23T08:50:49.854Z,2.4
2023-01-23T08:53:49.807Z,2.4
2023-01-23T08:56:49.811Z,2.4
2023-01-23T08:59:49.809Z,2.5
2023-01-23T09:02:49.828Z,2.5
2023-01-23T09:05:49.824Z,2.5
2023-01-23T09:08:49.816Z,2.5
2023-01-23T09:11:49.837Z,2.5
2023-01-23T09:14:49.819Z,2.5
2023-01-23T09:17:49.864Z,2.5
2023-01-23T09:20:49.815Z,2.6
2023-01-23T09:23:49.820Z,2.6
2023-01-23T09:26:49.815Z,2.6
2023-01-23T09:29:49.816Z,2.6
2023-01-23T09:32:49.816Z,2.6
2023-01-23T09:35:49.810Z,2.6
2023-01-23T09:38:49.817Z,2.7
2023-01-23T09:41:49.813Z,2.7
2023-01-23T09:47:50.748Z,2.7
2023-01-23T09:50:49.890Z,2.7
2023-01-23T09:53:49.816Z,2.7
2023-01-23T09:56:49.813Z,2.8
2023-01-23T09:59:59.020Z,2.8
2023-01-23T10:02:49.928Z,2.8
2023-01-23T10:05:49.814Z,2.8
2023-01-23T10:08:49.813Z,2.8
2023-01-23T10:11:49.812Z,2.8
2023-01-23T10:14:49.815Z,2.9
2023-01-23T10:17:49.820Z,2.9
2023-01-23T10:20:49.812Z,2.9
2023-01-23T10:23:49.820Z,2.9
2023-01-23T10:26:49.905Z,2.9
2023-01-23T10:32:49.817Z,3
2023-01-23T10:35:49.828Z,3
2023-01-23T10:38:49.837Z,3
2023-01-23T10:41:54.264Z,3
2023-01-23T10:44:49.846Z,3.1
2023-01-23T10:47:54.495Z,3.1
2023-01-23T10:50:49.865Z,3.1
2023-01-23T10:53:49.829Z,3.1
2023-01-23T10:56:49.853Z,3.1
2023-01-23T10:59:49.829Z,3.2
2023-01-23T11:02:49.891Z,3.2
2023-01-23T11:05:52.717Z,3.2
2023-01-23T11:08:49.836Z,3.2
2023-01-23T11:11:49.829Z,3.2
2023-01-23T11:14:49.839Z,3.2
2023-01-23T11:17:49.834Z,3.2
2023-01-23T11:20:49.835Z,3.3
2023-01-23T11:23:49.829Z,3.3
2023-01-23T11:26:49.832Z,3.3
2023-01-23T11:29:49.837Z,3.3
2023-01-23T11:32:49.855Z,3.4
2023-01-23T11:35:49.857Z,3.4
2023-01-23T11:38:52.662Z,3.4
2023-01-23T11:41:49.845Z,3.4
2023-01-23T11:44:49.834Z,3.4
2023-01-23T11:47:49.835Z,3.4
2023-01-23T11:50:55.176Z,3.5
2023-01-23T11:53:49.899Z,3.5
2023-01-23T11:56:49.831Z,3.5
2023-01-23T11:59:49.835Z,3.6
2023-01-23T12:02:49.888Z,3.6
2023-01-23T12:05:49.833Z,3.6
2023-01-23T12:08:49.854Z,3.6
2023-01-23T12:11:49.873Z,3.6
2023-01-23T12:14:49.898Z,3.6
2023-01-23T12:17:49.854Z,3.6
2023-01-23T12:23:49.845Z,3.6
2023-01-23T12:26:49.899Z,3.6
2023-01-23T12:29:49.857Z,3.6
2023-01-23T12:32:49.844Z,3.6
2023-01-23T12:35:49.843Z,3.6
2023-01-23T12:38:49.843Z,3.7
2023-01-23T12:41:49.849Z,3.7
2023-01-23T12:44:49.846Z,3.7
2023-01-23T12:47:49.862Z,3.7
2023-01-23T12:50:50.258Z,3.8
2023-01-23T12:53:49.838Z,3.8
2023-01-23T12:59:49.865Z,3.9
2023-01-23T13:02:49.848Z,3.9
2023-01-23T13:05:49.849Z,3.9
2023-01-23T13:09:00.353Z,3.9
2023-01-23T13:11:49.855Z,3.9
2023-01-23T13:15:10.411Z,3.9
2023-01-23T13:17:49.848Z,3.9
2023-01-23T13:20:50.078Z,3.9
2023-01-23T13:23:49.861Z,3.9
2023-01-23T13:26:49.851Z,3.9
2023-01-23T13:29:49.885Z,3.9
2023-01-23T13:32:50.807Z,3.9
2023-01-23T13:38:49.852Z,3.9
2023-01-23T13:41:49.851Z,3.9
2023-01-23T13:44:49.865Z,3.9
2023-01-23T14:20:49.864Z,4
2023-01-23T14:23:49.864Z,4
2023-01-23T14:26:49.873Z,4
2023-01-23T14:29:49.863Z,4
2023-01-23T14:32:50.007Z,3.9
2023-01-23T14:35:49.862Z,3.9
2023-01-23T14:38:49.864Z,3.9
2023-01-23T14:41:49.884Z,3.9
2023-01-23T14:44:49.866Z,3.9
2023-01-23T14:47:56.366Z,3.9
2023-01-23T14:50:50.043Z,3.9
2023-01-23T14:53:49.877Z,3.9
2023-01-23T14:56:49.888Z,3.9
2023-01-23T14:59:49.879Z,3.8
2023-01-23T15:02:49.971Z,3.8
2023-01-23T15:05:49.896Z,3.8
2023-01-23T15:08:49.884Z,3.8
2023-01-23T15:11:49.877Z,3.7
2023-01-23T15:14:49.876Z,3.7
2023-01-23T15:17:49.930Z,3.7
2023-01-23T15:20:49.873Z,3.6
2023-01-23T15:23:49.935Z,3.6
2023-01-23T15:26:49.874Z,3.6
2023-01-23T15:29:49.873Z,3.6
2023-01-23T15:32:49.866Z,3.5
2023-01-23T15:35:49.874Z,3.5
2023-01-23T15:38:49.893Z,3.5
2023-01-23T15:41:49.879Z,3.5
2023-01-23T15:44:49.873Z,3.4
2023-01-23T15:47:49.891Z,3.4
2023-01-23T15:50:49.900Z,3.4
2023-01-23T15:53:49.876Z,3.4
2023-01-23T15:56:56.985Z,3.3
2023-01-23T15:59:49.885Z,3.3
2023-01-23T16:02:56.006Z,3.3
2023-01-23T16:05:49.870Z,3.3
2023-01-23T16:08:55.021Z,3.2
2023-01-23T16:11:49.874Z,3.2
2023-01-23T16:14:49.894Z,3.2
2023-01-23T16:17:49.879Z,3.1
2023-01-23T16:20:49.880Z,3.1
2023-01-23T16:23:49.951Z,3.1
2023-01-23T16:26:49.885Z,3.1
2023-01-23T16:29:49.879Z,3
2023-01-23T16:32:49.921Z,3
2023-01-23T16:38:49.878Z,3
2023-01-23T16:41:49.891Z,2.9
2023-01-23T16:44:49.887Z,2.9
2023-01-23T16:47:49.898Z,2.9
2023-01-23T16:50:49.888Z,2.9
2023-01-23T16:53:49.925Z,2.8
2023-01-23T16:56:49.902Z,2.8
2023-01-23T16:59:49.950Z,2.8
2023-01-23T17:02:49.896Z,2.8
2023-01-23T17:05:49.898Z,2.8
2023-01-23T17:08:49.904Z,2.8
2023-01-23T17:11:49.919Z,2.7
2023-01-23T17:14:50.068Z,2.7
2023-01-23T17:17:50.032Z,2.7
2023-01-23T17:20:50.048Z,2.7
2023-01-23T17:23:50.089Z,2.7
2023-01-23T17:26:50.034Z,2.7
2023-01-23T17:29:50.031Z,2.7
2023-01-23T17:32:50.035Z,2.7
2023-01-23T17:35:50.033Z,2.6
2023-01-23T17:38:50.051Z,2.6
2023-01-23T17:41:50.100Z,2.6
2023-01-23T17:44:50.036Z,2.6
2023-01-23T17:47:50.033Z,2.6
2023-01-23T17:50:50.042Z,2.6
2023-01-23T17:53:50.031Z,2.6
2023-01-23T17:59:50.027Z,2.6
2023-01-23T18:02:50.035Z,2.6
2023-01-23T18:05:50.020Z,2.5
2023-01-23T18:08:50.028Z,2.5
2023-01-23T18:11:50.034Z,2.5
2023-01-23T18:14:50.036Z,2.5
2023-01-23T18:17:50.050Z,2.5
2023-01-23T18:20:50.033Z,2.5
2023-01-23T18:23:50.062Z,2.5
2023-01-23T18:26:50.022Z,2.5
2023-01-23T18:29:50.042Z,2.5
2023-01-23T18:32:50.033Z,2.5
2023-01-23T18:35:50.033Z,2.5
2023-01-23T18:38:50.029Z,2.5
2023-01-23T18:41:50.023Z,2.5
2023-01-23T18:44:50.025Z,2.5
2023-01-23T18:47:50.041Z,2.5
2023-01-23T18:50:50.028Z,2.5
2023-01-23T18:53:50.039Z,2.5
2023-01-23T18:56:50.037Z,2.5
2023-01-23T19:02:50.040Z,2.4
2023-01-23T19:05:50.030Z,2.4
2023-01-23T19:08:50.029Z,2.4
2023-01-23T19:11:50.026Z,2.4
2023-01-23T19:14:50.026Z,2.4
2023-01-23T19:20:50.030Z,2.4
2023-01-23T19:23:50.182Z,2.4
2023-01-23T19:26:50.072Z,2.4
2023-01-23T19:29:50.033Z,2.3
2023-01-23T19:32:50.031Z,2.3
2023-01-23T19:35:50.033Z,2.3
2023-01-23T19:38:50.037Z,2.3
2023-01-23T19:41:50.046Z,2.3
2023-01-23T19:44:50.042Z,2.3
2023-01-23T19:47:50.034Z,2.3
2023-01-23T19:50:50.053Z,2.3
2023-01-23T19:53:50.030Z,2.3
2023-01-23T19:56:50.052Z,2.2
2023-01-23T19:59:50.039Z,2.2
2023-01-23T20:02:50.041Z,2.2
2023-01-23T20:05:50.044Z,2.2
2023-01-23T20:08:50.043Z,2.2
2023-01-23T20:11:50.039Z,2.2
2023-01-23T20:14:50.033Z,2.2
2023-01-23T20:17:50.050Z,2.2
2023-01-23T20:20:50.037Z,2.2
2023-01-23T20:23:50.070Z,2.1
2023-01-23T20:26:50.030Z,2.1
2023-01-23T20:29:50.049Z,2.1
2023-01-23T20:32:50.038Z,2.1
2023-01-23T20:35:50.041Z,2.1
2023-01-23T20:38:50.040Z,2.1
2023-01-23T20:41:50.054Z,2.1
2023-01-23T20:44:50.042Z,2.1
2023-01-23T20:47:50.041Z,2.1
2023-01-23T20:50:50.043Z,2.1
2023-01-23T20:53:50.041Z,2.1
2023-01-23T20:56:50.042Z,2.1
2023-01-23T20:59:50.036Z,2.1
2023-01-23T21:02:50.082Z,2.1
2023-01-23T21:05:50.035Z,2.1
2023-01-23T21:08:50.053Z,2.1
2023-01-23T21:11:50.048Z,2.1
2023-01-23T21:14:50.045Z,2.1
2023-01-23T21:17:50.047Z,2.1
2023-01-23T21:20:50.051Z,2.1
2023-01-23T21:23:50.142Z,2.1
2023-01-23T21:26:50.063Z,2.1
2023-01-23T21:29:50.046Z,2.2
2023-01-23T21:32:50.440Z,2.2
2023-01-23T21:35:50.045Z,2.2
2023-01-23T21:38:51.305Z,2.2
2023-01-23T21:44:50.037Z,2.2
2023-01-23T21:47:50.044Z,2.2
2023-01-23T21:53:50.082Z,2.2
2023-01-23T21:56:50.057Z,2.2
2023-01-23T21:59:50.045Z,2.2
2023-01-23T22:02:50.125Z,2.2
2023-01-23T22:05:50.059Z,2.2
2023-01-23T22:08:50.054Z,2.2
2023-01-23T22:11:50.055Z,2.2
2023-01-23T22:14:50.046Z,2.2
2023-01-23T22:17:50.060Z,2.2
2023-01-23T22:20:50.048Z,2.2
2023-01-23T22:23:50.092Z,2.2
2023-01-23T22:26:50.081Z,2.2
2023-01-23T22:29:50.054Z,2.2
2023-01-23T22:32:50.047Z,2.2
2023-01-23T22:35:50.056Z,2.1
2023-01-23T22:38:50.048Z,2.1
2023-01-23T22:41:50.162Z,2.1
2023-01-23T22:44:50.078Z,2.1
2023-01-23T22:47:50.053Z,2.1
2023-01-23T22:50:50.080Z,2.1
2023-01-23T22:53:50.055Z,2.1
2023-01-23T22:56:50.058Z,2.1
2023-01-23T22:59:50.054Z,2.1
2023-01-23T23:02:50.056Z,2.1
2023-01-23T23:05:50.072Z,2.1
2023-01-23T23:08:50.071Z,2.1
2023-01-23T23:11:50.066Z,2.1
2023-01-23T23:14:50.063Z,2.1
2023-01-23T23:17:50.118Z,2.1
2023-01-23T23:20:50.067Z,2.1
2023-01-23T23:23:50.102Z,2
2023-01-23T23:26:50.059Z,2
2023-01-23T23:29:50.065Z,2
2023-01-23T23:32:50.058Z,2
2023-01-23T23:35:50.063Z,2
2023-01-23T23:38:50.068Z,2
2023-01-23T23:41:50.063Z,2
2023-01-23T23:44:50.071Z,2
2023-01-23T23:47:50.060Z,2
2023-01-23T23:50:50.066Z,2
2023-01-23T23:53:50.063Z,1.9
2023-01-23T23:56:50.081Z,1.9
2023-01-23T23:59:50.060Z,1.9
